Time;durP1;ratioP1;P1;durP2;ratioP2;P2;SDS_P1;SDS_P2;PMS_P1;PMS_P2;Temp;Humidity;BMP_temperature;BMP_pressure;BME280_temperature;BME280_humidity;BME280_pressure;Samples;Min_cycle;Max_cycle;Signal;HPM_P1;HPM_P2
2021/11/17 02:25:52;;;;;;;20.38;8.70;;;;;;;;;;5049800;28;20040;-56
2021/11/17 02:28:36;;;;;;;19.13;7.28;;;;;;;;;;5048962;28;20493;-55
2021/11/17 02:31:18;;;;;;;18.27;7.60;;;;;;;;;;5052816;28;20148;-57
2021/11/17 02:34:07;;;;;;;15.02;7.78;;;;;;;;;;5052867;28;20128;-57
2021/11/17 02:36:36;;;;;;;17.65;7.43;;;;;;;;;;5053534;28;20033;-57
2021/11/17 02:39:12;;;;;;;17.70;7.55;;;;;;;;;;5043016;28;20036;-56
2021/11/17 02:41:48;;;;;;;17.20;6.85;;;;;;;;;;5050312;28;20112;-57
2021/11/17 02:44:24;;;;;;;16.25;7.03;;;;;;;;;;5053311;28;20079;-55
2021/11/17 02:47:06;;;;;;;16.55;6.70;;;;;;;;;;5051067;28;20032;-57
2021/11/17 02:49:51;;;;;;;14.25;6.38;;;;;;;;;;5045523;28;20111;-57
2021/11/17 02:52:33;;;;;;;14.18;6.38;;;;;;;;;;5047622;28;20108;-53
2021/11/17 02:55:07;;;;;;;18.33;7.10;;;;;;;;;;5047902;28;20042;-56
2021/11/17 02:57:39;;;;;;;12.30;6.25;;;;;;;;;;5051927;28;20100;-53
2021/11/17 03:00:07;;;;;;;14.38;6.22;;;;;;;;;;5042674;28;20028;-58
2021/11/17 03:02:34;;;;;;;15.02;6.00;;;;;;;;;;5053790;28;20112;-57
2021/11/17 03:05:09;;;;;;;10.02;5.30;;;;;;;;;;5043457;28;20452;-54
2021/11/17 03:07:44;;;;;;;10.23;5.10;;;;;;;;;;5049536;28;20477;-55
2021/11/17 03:10:16;;;;;;;12.68;6.00;;;;;;;;;;5053622;28;20024;-55
2021/11/17 03:12:58;;;;;;;12.10;5.65;;;;;;;;;;5053166;28;20025;-56
2021/11/17 03:15:31;;;;;;;14.10;5.63;;;;;;;;;;5043102;28;20036;-54
2021/11/17 03:18:07;;;;;;;12.00;5.57;;;;;;;;;;5052282;28;20106;-53
2021/11/17 03:20:40;;;;;;;14.02;6.43;;;;;;;;;;5050941;28;20032;-55
2021/11/17 03:23:11;;;;;;;10.02;4.85;;;;;;;;;;5053884;28;20108;-55
2021/11/17 03:26:00;;;;;;;13.45;6.38;;;;;;;;;;5042709;28;20029;-55
2021/11/17 03:28:42;;;;;;;12.20;6.07;;;;;;;;;;5047352;28;20090;-55
2021/11/17 03:31:20;;;;;;;15.70;6.88;;;;;;;;;;5052861;28;20029;-53
2021/11/17 03:34:05;;;;;;;12.95;6.15;;;;;;;;;;5053324;28;20068;-55
2021/11/17 03:36:38;;;;;;;13.38;5.93;;;;;;;;;;5052895;28;20036;-52
2021/11/17 03:39:03;;;;;;;15.57;6.65;;;;;;;;;;5049279;28;20032;-58
2021/11/17 03:41:50;;;;;;;13.57;5.95;;;;;;;;;;5049357;28;20095;-57
2021/11/17 03:44:22;;;;;;;12.73;6.07;;;;;;;;;;5050190;28;20036;-58
2021/11/17 03:46:51;;;;;;;14.13;6.00;;;;;;;;;;5049958;28;20025;-55
2021/11/17 03:49:26;;;;;;;13.63;5.80;;;;;;;;;;5051227;28;20029;-57
2021/11/17 03:51:52;;;;;;;12.75;5.93;;;;;;;;;;5050899;28;20035;-58
2021/11/17 03:54:40;;;;;;;17.70;6.35;;;;;;;;;;5046470;28;20445;-55
2021/11/17 03:57:25;;;;;;;16.42;6.75;;;;;;;;;;5047849;28;20059;-53
2021/11/17 04:00:08;;;;;;;13.45;6.70;;;;;;;;;;5046614;28;20057;-56
2021/11/17 04:02:47;;;;;;;16.83;6.53;;;;;;;;;;5040033;28;20036;-58
2021/11/17 04:05:34;;;;;;;14.30;6.45;;;;;;;;;;5044324;28;20112;-54
2021/11/17 04:08:07;;;;;;;12.98;5.28;;;;;;;;;;5051127;28;20032;-55
2021/11/17 04:10:52;;;;;;;16.13;6.13;;;;;;;;;;5049411;28;20387;-56
2021/11/17 04:13:31;;;;;;;10.27;4.78;;;;;;;;;;5040263;28;20025;-56
2021/11/17 04:16:15;;;;;;;9.50;5.07;;;;;;;;;;5049841;28;20115;-54
2021/11/17 04:19:00;;;;;;;9.68;5.32;;;;;;;;;;5043748;28;20095;-55
2021/11/17 04:21:26;;;;;;;9.43;4.57;;;;;;;;;;5040484;28;20104;-57
2021/11/17 04:24:04;;;;;;;11.55;5.65;;;;;;;;;;5047753;28;20047;-57
2021/11/17 04:26:30;;;;;;;9.32;4.10;;;;;;;;;;5048806;28;20384;-56
2021/11/17 04:29:05;;;;;;;7.40;3.75;;;;;;;;;;5051507;28;20029;-57
2021/11/17 04:31:55;;;;;;;8.02;3.80;;;;;;;;;;5048671;28;20055;-53
2021/11/17 04:34:40;;;;;;;9.13;4.28;;;;;;;;;;5043912;28;20048;-53
2021/11/17 04:37:28;;;;;;;11.43;4.35;;;;;;;;;;5050194;28;20029;-54
2021/11/17 04:40:01;;;;;;;12.35;4.28;;;;;;;;;;5044708;28;20108;-53
2021/11/17 04:42:30;;;;;;;6.45;3.38;;;;;;;;;;5046515;28;20090;-53
2021/11/17 04:45:01;;;;;;;11.90;5.43;;;;;;;;;;5050949;28;20048;-57
2021/11/17 04:47:33;;;;;;;11.93;4.63;;;;;;;;;;5051953;28;20035;-57
2021/11/17 04:49:59;;;;;;;10.85;5.20;;;;;;;;;;5051192;28;20384;-55
2021/11/17 04:52:25;;;;;;;12.60;5.57;;;;;;;;;;5049405;28;20025;-55
2021/11/17 04:54:54;;;;;;;11.13;5.00;;;;;;;;;;5050128;28;20035;-55
2021/11/17 04:57:20;;;;;;;11.30;5.05;;;;;;;;;;5045910;28;20028;-53
2021/11/17 04:59:53;;;;;;;13.30;5.50;;;;;;;;;;5049827;28;20086;-52
2021/11/17 05:02:25;;;;;;;10.60;5.10;;;;;;;;;;5046431;28;20040;-56
2021/11/17 05:05:00;;;;;;;9.75;4.53;;;;;;;;;;5049202;28;20033;-52
2021/11/17 05:07:26;;;;;;;9.48;5.32;;;;;;;;;;5049472;28;20135;-53
2021/11/17 05:10:18;;;;;;;12.13;6.03;;;;;;;;;;5045995;28;20079;-54
2021/11/17 05:13:00;;;;;;;10.43;5.20;;;;;;;;;;5046347;28;20052;-51
2021/11/17 05:15:26;;;;;;;14.52;5.82;;;;;;;;;;5049103;28;20029;-54
2021/11/17 05:17:58;;;;;;;12.68;5.55;;;;;;;;;;5051159;28;20043;-53
2021/11/17 05:20:43;;;;;;;15.27;4.95;;;;;;;;;;5049231;28;20017;-56
2021/11/17 05:23:28;;;;;;;12.23;5.20;;;;;;;;;;5048339;28;20033;-56
2021/11/17 05:26:12;;;;;;;13.27;5.68;;;;;;;;;;5048911;28;20033;-53
2021/11/17 05:28:47;;;;;;;14.57;5.15;;;;;;;;;;5047381;28;20033;-56
2021/11/17 05:31:28;;;;;;;13.98;5.32;;;;;;;;;;5049708;28;20037;-56
2021/11/17 05:34:04;;;;;;;12.23;5.78;;;;;;;;;;5050083;28;20059;-58
2021/11/17 05:36:39;;;;;;;12.05;5.30;;;;;;;;;;5041209;28;20029;-57
2021/11/17 05:39:25;;;;;;;8.30;4.00;;;;;;;;;;5046361;28;20033;-57
2021/11/17 05:42:03;;;;;;;10.38;5.65;;;;;;;;;;5046830;28;20036;-57
2021/11/17 05:44:35;;;;;;;14.30;5.50;;;;;;;;;;5047884;28;20051;-56
2021/11/17 05:47:23;;;;;;;17.52;5.53;;;;;;;;;;5049759;28;20021;-55
2021/11/17 05:50:00;;;;;;;12.25;5.90;;;;;;;;;;5045127;28;20083;-54
2021/11/17 05:52:33;;;;;;;10.80;5.03;;;;;;;;;;5041719;28;20033;-53
2021/11/17 05:54:59;;;;;;;7.78;3.67;;;;;;;;;;5049207;28;20025;-52
2021/11/17 05:57:44;;;;;;;9.50;4.53;;;;;;;;;;5043227;28;20025;-53
2021/11/17 06:00:27;;;;;;;10.02;5.03;;;;;;;;;;5048323;28;20025;-55
2021/11/17 06:02:59;;;;;;;9.02;3.80;;;;;;;;;;5044151;28;20028;-53
2021/11/17 06:05:25;;;;;;;9.10;4.53;;;;;;;;;;5046746;28;20641;-53
2021/11/17 06:07:51;;;;;;;14.93;6.18;;;;;;;;;;5047941;28;20029;-54
2021/11/17 06:10:35;;;;;;;14.73;5.18;;;;;;;;;;5052222;28;20029;-52
2021/11/17 06:13:02;;;;;;;13.55;5.68;;;;;;;;;;5047983;28;20025;-52
2021/11/17 06:15:28;;;;;;;12.05;5.75;;;;;;;;;;5040964;28;20381;-55
2021/11/17 06:17:56;;;;;;;15.32;5.90;;;;;;;;;;5054229;28;20108;-55
2021/11/17 06:20:24;;;;;;;10.55;5.38;;;;;;;;;;5037612;28;20078;-56
2021/11/17 06:22:51;;;;;;;12.63;5.95;;;;;;;;;;5044786;28;20684;-52
2021/11/17 06:25:18;;;;;;;12.88;5.70;;;;;;;;;;5048875;28;20365;-56
2021/11/17 06:27:46;;;;;;;11.65;5.70;;;;;;;;;;5047555;28;20017;-54
2021/11/17 06:30:14;;;;;;;14.30;6.28;;;;;;;;;;5050129;28;20021;-57
2021/11/17 06:32:40;;;;;;;16.52;6.20;;;;;;;;;;5050321;28;20076;-58
2021/11/17 06:35:07;;;;;;;10.60;5.35;;;;;;;;;;5054482;28;20674;-57
2021/11/17 06:37:33;;;;;;;14.48;6.43;;;;;;;;;;5045784;28;20033;-55
2021/11/17 06:40:00;;;;;;;13.23;6.05;;;;;;;;;;5051705;28;20107;-56
2021/11/17 06:42:28;;;;;;;13.63;5.55;;;;;;;;;;5052279;28;20048;-56
2021/11/17 06:44:55;;;;;;;12.43;6.13;;;;;;;;;;5054315;28;20032;-57
2021/11/17 06:47:21;;;;;;;10.45;5.20;;;;;;;;;;5054192;28;20025;-58
2021/11/17 06:49:47;;;;;;;14.68;5.72;;;;;;;;;;5053383;28;20601;-55
2021/11/17 06:52:13;;;;;;;12.52;6.00;;;;;;;;;;5053259;28;20057;-53
2021/11/17 06:54:39;;;;;;;12.10;4.93;;;;;;;;;;5044883;28;20181;-52
2021/11/17 06:57:06;;;;;;;13.60;5.85;;;;;;;;;;5054413;28;20412;-58
2021/11/17 06:59:32;;;;;;;15.95;5.40;;;;;;;;;;5051077;28;20053;-56
2021/11/17 07:02:04;;;;;;;12.63;5.78;;;;;;;;;;5046864;28;20025;-55
2021/11/17 07:04:30;;;;;;;14.75;5.65;;;;;;;;;;5056008;28;20449;-55
2021/11/17 07:06:56;;;;;;;14.88;6.30;;;;;;;;;;5055888;28;20025;-58
2021/11/17 07:09:22;;;;;;;14.02;6.25;;;;;;;;;;5057104;28;20060;-55
2021/11/17 07:11:48;;;;;;;12.30;5.72;;;;;;;;;;5052815;28;20400;-57
2021/11/17 07:14:16;;;;;;;13.80;6.80;;;;;;;;;;5053748;28;20369;-52
2021/11/17 07:16:42;;;;;;;13.95;6.15;;;;;;;;;;5054138;28;20108;-56
2021/11/17 07:19:09;;;;;;;14.50;6.63;;;;;;;;;;5053570;28;20137;-57
2021/11/17 07:21:35;;;;;;;13.57;6.53;;;;;;;;;;5053785;28;20056;-54
2021/11/17 07:24:02;;;;;;;11.05;5.57;;;;;;;;;;5054216;28;20424;-55
2021/11/17 07:26:29;;;;;;;11.57;5.40;;;;;;;;;;5047742;28;21246;-56
2021/11/17 07:28:55;;;;;;;12.32;5.65;;;;;;;;;;5053522;28;20104;-57
2021/11/17 07:31:21;;;;;;;15.35;5.93;;;;;;;;;;5044339;28;20056;-55
2021/11/17 07:33:47;;;;;;;13.63;6.25;;;;;;;;;;5053544;28;20053;-58
2021/11/17 07:36:16;;;;;;;13.65;6.65;;;;;;;;;;5053947;28;20082;-55
2021/11/17 07:38:42;;;;;;;14.75;5.85;;;;;;;;;;5053246;28;20048;-58
2021/11/17 07:41:08;;;;;;;12.25;6.10;;;;;;;;;;5053350;28;20477;-58
2021/11/17 07:43:34;;;;;;;12.15;6.15;;;;;;;;;;5053580;28;20044;-57
2021/11/17 07:46:00;;;;;;;15.02;6.25;;;;;;;;;;5053552;28;20104;-58
2021/11/17 07:48:27;;;;;;;14.30;6.10;;;;;;;;;;5052865;28;20101;-58
2021/11/17 07:50:55;;;;;;;12.85;5.93;;;;;;;;;;5048931;28;21359;-53
2021/11/17 07:53:22;;;;;;;14.88;6.13;;;;;;;;;;5045697;28;20454;-55
2021/11/17 07:55:52;;;;;;;11.82;5.70;;;;;;;;;;5052940;28;20099;-58
2021/11/17 07:58:19;;;;;;;10.00;5.30;;;;;;;;;;5053274;28;20358;-57
2021/11/17 08:00:48;;;;;;;14.57;6.10;;;;;;;;;;5046819;28;20036;-56
2021/11/17 08:03:14;;;;;;;12.82;6.32;;;;;;;;;;5053263;28;20465;-54
2021/11/17 08:05:40;;;;;;;11.85;5.97;;;;;;;;;;5053209;28;20021;-52
2021/11/17 08:08:07;;;;;;;14.55;5.57;;;;;;;;;;5052703;28;20450;-56
2021/11/17 08:10:33;;;;;;;12.07;5.78;;;;;;;;;;5052810;28;20104;-54
2021/11/17 08:13:00;;;;;;;13.30;6.47;;;;;;;;;;5053316;28;20411;-54
2021/11/17 08:15:26;;;;;;;13.10;5.82;;;;;;;;;;5053114;28;20036;-53
2021/11/17 08:17:52;;;;;;;10.73;5.85;;;;;;;;;;5052632;28;20025;-56
2021/11/17 08:20:18;;;;;;;12.30;6.28;;;;;;;;;;5052516;28;20060;-55
2021/11/17 08:22:46;;;;;;;12.40;5.70;;;;;;;;;;5052964;28;20056;-57
2021/11/17 08:25:13;;;;;;;15.05;6.13;;;;;;;;;;5052844;28;20103;-56
2021/11/17 08:27:39;;;;;;;13.18;5.85;;;;;;;;;;5051119;28;20033;-53
2021/11/17 08:30:08;;;;;;;13.25;5.53;;;;;;;;;;5052397;28;20104;-53
2021/11/17 08:32:34;;;;;;;12.77;6.40;;;;;;;;;;5052344;28;20084;-54
2021/11/17 08:35:00;;;;;;;11.27;5.40;;;;;;;;;;5052566;28;20409;-56
2021/11/17 08:37:26;;;;;;;13.35;5.38;;;;;;;;;;5052746;28;20036;-56
2021/11/17 08:39:55;;;;;;;15.18;5.78;;;;;;;;;;5052053;28;20618;-58
2021/11/17 08:42:22;;;;;;;11.65;5.85;;;;;;;;;;5052468;28;20049;-58
2021/11/17 08:44:48;;;;;;;11.52;5.97;;;;;;;;;;5052372;28;20032;-58
2021/11/17 08:47:16;;;;;;;12.43;5.47;;;;;;;;;;5052209;28;20020;-54
2021/11/17 08:49:43;;;;;;;12.90;6.20;;;;;;;;;;5050140;28;20438;-58
2021/11/17 08:52:09;;;;;;;15.10;6.25;;;;;;;;;;5052382;28;20021;-56
2021/11/17 08:54:35;;;;;;;14.38;6.85;;;;;;;;;;5049785;28;20021;-58
2021/11/17 08:57:01;;;;;;;11.93;5.38;;;;;;;;;;5052400;28;20090;-56
2021/11/17 08:59:31;;;;;;;13.57;6.15;;;;;;;;;;5051791;28;20067;-58
2021/11/17 09:01:57;;;;;;;12.93;6.13;;;;;;;;;;5050867;28;20021;-57
2021/11/17 09:04:23;;;;;;;12.43;5.50;;;;;;;;;;5048958;28;20107;-54
2021/11/17 09:06:50;;;;;;;13.00;6.47;;;;;;;;;;5050709;28;20477;-55
2021/11/17 09:09:17;;;;;;;9.85;5.00;;;;;;;;;;5047568;28;20039;-56
2021/11/17 09:11:43;;;;;;;12.23;5.70;;;;;;;;;;5051830;28;20116;-52
2021/11/17 09:14:09;;;;;;;11.75;5.22;;;;;;;;;;5046500;28;20738;-56
2021/11/17 09:16:35;;;;;;;13.07;5.70;;;;;;;;;;5046721;28;20039;-55
2021/11/17 09:19:03;;;;;;;11.63;5.30;;;;;;;;;;5044496;28;20037;-53
2021/11/17 09:21:32;;;;;;;11.75;5.05;;;;;;;;;;5045735;28;20032;-56
2021/11/17 09:23:58;;;;;;;9.85;5.45;;;;;;;;;;5046626;28;20053;-54
2021/11/17 09:26:24;;;;;;;12.88;5.03;;;;;;;;;;5041447;28;20060;-53
2021/11/17 09:28:52;;;;;;;11.65;4.97;;;;;;;;;;5041602;28;20136;-53
2021/11/17 09:31:19;;;;;;;11.93;5.95;;;;;;;;;;5035934;28;20032;-54
2021/11/17 09:33:46;;;;;;;12.88;5.90;;;;;;;;;;5039390;28;20053;-57
2021/11/17 09:36:13;;;;;;;10.48;5.15;;;;;;;;;;5038460;28;20037;-54
2021/11/17 09:38:40;;;;;;;12.35;5.38;;;;;;;;;;5045523;28;20032;-56
2021/11/17 09:41:09;;;;;;;11.52;5.45;;;;;;;;;;5039795;28;20684;-56
2021/11/17 09:43:39;;;;;;;10.43;5.00;;;;;;;;;;5040875;28;20104;-54
2021/11/17 09:46:05;;;;;;;10.95;5.32;;;;;;;;;;5039578;28;20480;-55
2021/11/17 09:48:35;;;;;;;11.00;4.97;;;;;;;;;;5035761;28;20461;-54
2021/11/17 09:51:13;;;;;;;11.82;4.82;;;;;;;;;;5048043;28;20070;-55
2021/11/17 09:53:46;;;;;;;11.38;5.10;;;;;;;;;;5059371;28;20028;-54
2021/11/17 09:56:16;;;;;;;11.38;5.00;;;;;;;;;;5059458;28;20024;-57
2021/11/17 09:58:44;;;;;;;10.32;5.28;;;;;;;;;;5067581;28;20029;-57
2021/11/17 10:01:16;;;;;;;9.65;5.30;;;;;;;;;;5043124;28;20067;-57
2021/11/17 10:03:52;;;;;;;10.32;5.47;;;;;;;;;;5065372;28;20466;-56
2021/11/17 10:06:51;;;;;;;11.63;5.40;;;;;;;;;;5066012;28;20085;-55
2021/11/17 10:09:47;;;;;;;11.52;5.13;;;;;;;;;;5063396;28;20031;-52
2021/11/17 10:15:03;;;;;;;11.77;5.45;;;;;;;;;;5068406;28;20160;-57
2021/11/17 10:17:40;;;;;;;11.65;5.05;;;;;;;;;;5059076;28;20040;-55
2021/11/17 10:20:08;;;;;;;11.38;4.60;;;;;;;;;;5053284;28;20025;-54
2021/11/17 10:22:34;;;;;;;11.27;5.10;;;;;;;;;;5056223;28;20443;-52
2021/11/17 10:25:24;;;;;;;11.65;5.50;;;;;;;;;;5049742;28;20068;-53
2021/11/17 10:27:56;;;;;;;14.90;5.68;;;;;;;;;;5050202;28;20033;-58
2021/11/17 10:30:34;;;;;;;10.95;5.75;;;;;;;;;;5056926;28;20029;-56
2021/11/17 10:33:09;;;;;;;10.15;4.82;;;;;;;;;;5057238;28;20041;-52
2021/11/17 10:35:38;;;;;;;10.93;4.60;;;;;;;;;;5058196;28;20028;-56
2021/11/17 10:38:10;;;;;;;9.48;4.95;;;;;;;;;;5058713;28;20115;-56
2021/11/17 10:40:56;;;;;;;11.48;5.50;;;;;;;;;;5058591;28;20481;-54
2021/11/17 10:43:30;;;;;;;11.35;4.72;;;;;;;;;;5058901;28;20380;-55
2021/11/17 10:46:16;;;;;;;11.35;5.20;;;;;;;;;;5054692;28;20051;-53
2021/11/17 10:48:50;;;;;;;11.40;5.38;;;;;;;;;;5058994;28;20040;-57
2021/11/17 10:51:22;;;;;;;8.63;4.63;;;;;;;;;;5051684;28;20478;-56
2021/11/17 10:53:49;;;;;;;10.80;4.85;;;;;;;;;;5061391;28;20030;-56
2021/11/17 10:56:16;;;;;;;9.52;4.82;;;;;;;;;;5062321;28;20028;-56
2021/11/17 10:58:44;;;;;;;10.85;4.78;;;;;;;;;;5061087;28;20021;-58
2021/11/17 11:01:13;;;;;;;10.88;5.32;;;;;;;;;;5061488;28;20369;-57
2021/11/17 11:03:42;;;;;;;9.30;4.40;;;;;;;;;;5059589;28;20029;-56
2021/11/17 11:06:11;;;;;;;11.07;4.75;;;;;;;;;;5061681;28;20056;-52
2021/11/17 11:08:43;;;;;;;14.60;4.60;;;;;;;;;;5056050;28;20040;-57
2021/11/17 11:11:09;;;;;;;11.63;5.25;;;;;;;;;;5057075;28;20025;-57
2021/11/17 11:13:37;;;;;;;10.70;4.78;;;;;;;;;;5053915;28;20115;-56
2021/11/17 11:16:19;;;;;;;10.15;5.25;;;;;;;;;;5061878;28;20545;-58
2021/11/17 11:18:47;;;;;;;12.07;5.60;;;;;;;;;;5054445;28;20025;-57
2021/11/17 11:21:15;;;;;;;12.18;5.65;;;;;;;;;;5055287;28;20492;-53
2021/11/17 11:23:59;;;;;;;9.60;5.30;;;;;;;;;;5054657;28;20013;-53
2021/11/17 11:26:26;;;;;;;8.23;4.25;;;;;;;;;;5048411;28;20560;-56
2021/11/17 11:28:52;;;;;;;10.43;4.70;;;;;;;;;;5062174;28;20403;-58
2021/11/17 11:31:41;;;;;;;10.82;5.28;;;;;;;;;;5046588;28;20037;-55
2021/11/17 11:34:07;;;;;;;10.75;5.38;;;;;;;;;;5054346;28;20053;-52
2021/11/17 11:36:43;;;;;;;8.10;4.20;;;;;;;;;;5053359;28;20080;-53
2021/11/17 11:39:09;;;;;;;9.80;4.85;;;;;;;;;;5050647;28;20112;-57
2021/11/17 11:41:37;;;;;;;10.52;4.93;;;;;;;;;;5054414;28;20039;-52
2021/11/17 11:44:18;;;;;;;10.00;4.80;;;;;;;;;;5054652;28;20025;-56
2021/11/17 11:46:48;;;;;;;12.00;4.93;;;;;;;;;;5056759;28;20028;-57
2021/11/17 11:49:37;;;;;;;11.63;5.18;;;;;;;;;;5055087;28;20376;-54
2021/11/17 11:52:21;;;;;;;10.18;5.22;;;;;;;;;;5046253;28;20039;-57
2021/11/17 11:54:53;;;;;;;12.32;5.95;;;;;;;;;;5051855;28;20453;-56
2021/11/17 11:57:38;;;;;;;11.27;5.47;;;;;;;;;;5051921;28;20438;-56
2021/11/17 12:00:23;;;;;;;11.10;5.43;;;;;;;;;;5051985;28;20028;-56
2021/11/17 12:02:50;;;;;;;12.18;5.43;;;;;;;;;;5052163;28;20508;-58
2021/11/17 12:05:34;;;;;;;10.45;5.57;;;;;;;;;;5053163;28;20021;-56
2021/11/17 12:08:15;;;;;;;14.02;6.25;;;;;;;;;;5051408;28;20132;-57
2021/11/17 12:10:48;;;;;;;10.05;5.50;;;;;;;;;;5052958;28;20577;-58
2021/11/17 12:13:18;;;;;;;10.80;4.88;;;;;;;;;;5053352;28;20017;-58
2021/11/17 12:15:58;;;;;;;12.05;5.22;;;;;;;;;;5053386;28;20021;-57
2021/11/17 12:18:25;;;;;;;8.10;3.97;;;;;;;;;;5044072;28;20389;-58
2021/11/17 12:21:00;;;;;;;9.98;4.47;;;;;;;;;;5049992;28;20112;-58
2021/11/17 12:23:29;;;;;;;9.20;4.53;;;;;;;;;;5051431;28;20445;-58
2021/11/17 12:26:01;;;;;;;9.18;4.75;;;;;;;;;;5044178;28;20470;-58
2021/11/17 12:28:28;;;;;;;8.60;4.40;;;;;;;;;;5049061;28;20029;-57
2021/11/17 12:31:10;;;;;;;12.63;4.80;;;;;;;;;;5045437;28;20098;-58
2021/11/17 12:33:42;;;;;;;11.48;4.68;;;;;;;;;;5049069;28;20127;-59
2021/11/17 12:36:11;;;;;;;10.60;4.82;;;;;;;;;;5046140;28;20056;-59
2021/11/17 12:38:38;;;;;;;8.70;4.28;;;;;;;;;;5046268;28;20025;-59
2021/11/17 12:41:17;;;;;;;8.52;4.20;;;;;;;;;;5051849;28;20025;-59
2021/11/17 12:43:45;;;;;;;8.82;4.10;;;;;;;;;;5048054;28;20022;-59
2021/11/17 12:46:44;;;;;;;9.00;3.58;;;;;;;;;;5047935;28;20032;-59
2021/11/17 12:49:21;;;;;;;6.40;3.58;;;;;;;;;;5040710;28;20029;-58
2021/11/17 12:51:55;;;;;;;7.40;3.13;;;;;;;;;;5050775;28;20012;-53
2021/11/17 12:54:27;;;;;;;7.47;3.58;;;;;;;;;;5060416;28;20029;-59
2021/11/17 12:57:06;;;;;;;9.10;3.72;;;;;;;;;;5051555;28;20108;-59
2021/11/17 12:59:36;;;;;;;6.57;3.50;;;;;;;;;;5062565;28;20033;-58
2021/11/17 13:02:23;;;;;;;6.60;3.70;;;;;;;;;;5065790;28;20052;-57
2021/11/17 13:05:09;;;;;;;8.68;3.90;;;;;;;;;;5066889;28;20115;-55
2021/11/17 13:07:43;;;;;;;10.90;4.57;;;;;;;;;;5050616;28;20102;-58
2021/11/17 13:10:10;;;;;;;8.27;4.15;;;;;;;;;;5061756;28;20036;-58
2021/11/17 13:12:37;;;;;;;8.95;4.10;;;;;;;;;;5053319;28;20036;-58
2021/11/17 13:15:06;;;;;;;11.18;4.22;;;;;;;;;;5061061;28;20024;-57
2021/11/17 13:17:44;;;;;;;8.65;4.05;;;;;;;;;;5053854;28;20032;-58
2021/11/17 13:20:13;;;;;;;9.88;4.45;;;;;;;;;;5055331;28;20061;-57
2021/11/17 13:22:40;;;;;;;8.38;4.32;;;;;;;;;;5058912;28;20033;-57
2021/11/17 13:25:21;;;;;;;11.75;4.72;;;;;;;;;;5047225;28;20330;-55
2021/11/17 13:27:50;;;;;;;8.13;4.25;;;;;;;;;;5044863;28;20048;-57
2021/11/17 13:30:36;;;;;;;8.73;3.92;;;;;;;;;;5050284;28;20139;-58
2021/11/17 13:33:19;;;;;;;7.53;4.00;;;;;;;;;;5053340;28;20048;-57
2021/11/17 13:35:45;;;;;;;8.00;4.30;;;;;;;;;;5046768;28;20527;-57
2021/11/17 13:38:11;;;;;;;7.63;4.45;;;;;;;;;;5050294;28;20104;-57
2021/11/17 13:40:38;;;;;;;8.48;3.75;;;;;;;;;;5054626;28;20029;-55
2021/11/17 13:43:04;;;;;;;8.68;4.43;;;;;;;;;;5063415;28;20017;-57
2021/11/17 13:45:31;;;;;;;8.27;4.85;;;;;;;;;;5064736;28;20520;-58
2021/11/17 13:47:58;;;;;;;8.13;4.43;;;;;;;;;;5057095;28;20361;-56
2021/11/17 13:50:25;;;;;;;7.18;3.47;;;;;;;;;;5056527;28;20029;-56
2021/11/17 13:52:52;;;;;;;7.72;4.55;;;;;;;;;;5053644;28;20449;-57
2021/11/17 13:55:20;;;;;;;10.18;4.00;;;;;;;;;;5059334;28;20492;-58
2021/11/17 13:57:47;;;;;;;8.65;4.15;;;;;;;;;;5058508;28;20029;-57
2021/11/17 14:00:14;;;;;;;9.13;4.43;;;;;;;;;;5058254;28;20024;-58
2021/11/17 14:02:40;;;;;;;8.00;3.85;;;;;;;;;;5057120;28;20032;-57
2021/11/17 14:05:07;;;;;;;7.50;3.95;;;;;;;;;;5057025;28;20028;-59
2021/11/17 14:07:33;;;;;;;7.93;3.22;;;;;;;;;;5056544;28;20108;-57
2021/11/17 14:10:00;;;;;;;6.20;3.53;;;;;;;;;;5054349;28;20064;-59
2021/11/17 14:12:26;;;;;;;7.38;3.15;;;;;;;;;;5057211;28;20108;-58
2021/11/17 14:14:52;;;;;;;6.60;3.67;;;;;;;;;;5054403;28;20095;-57
2021/11/17 14:17:18;;;;;;;6.15;3.40;;;;;;;;;;5054689;28;20028;-58
2021/11/17 14:19:44;;;;;;;6.40;3.20;;;;;;;;;;5050550;28;20048;-59
2021/11/17 14:22:10;;;;;;;6.65;3.30;;;;;;;;;;5053401;28;20028;-59
2021/11/17 14:24:36;;;;;;;6.78;3.30;;;;;;;;;;5056188;28;20025;-59
2021/11/17 14:27:04;;;;;;;7.00;3.30;;;;;;;;;;5050567;28;20040;-57
2021/11/17 14:29:33;;;;;;;7.28;3.85;;;;;;;;;;5051149;28;20116;-58
2021/11/17 14:32:06;;;;;;;8.02;3.63;;;;;;;;;;5051674;28;20036;-58
2021/11/17 14:34:32;;;;;;;6.53;3.05;;;;;;;;;;5049218;28;20042;-57
2021/11/17 14:37:05;;;;;;;7.50;3.72;;;;;;;;;;5056913;28;20037;-56
2021/11/17 14:39:31;;;;;;;9.40;3.63;;;;;;;;;;5049495;28;20111;-57
2021/11/17 14:41:57;;;;;;;6.38;3.30;;;;;;;;;;5056127;28;20053;-58
2021/11/17 14:44:23;;;;;;;4.93;2.97;;;;;;;;;;5047579;28;20027;-59
2021/11/17 14:46:49;;;;;;;6.25;3.33;;;;;;;;;;5042826;28;20033;-56
2021/11/17 14:49:16;;;;;;;5.20;2.47;;;;;;;;;;5052024;28;20032;-57
2021/11/17 14:51:42;;;;;;;4.53;2.72;;;;;;;;;;5045342;28;20097;-59
2021/11/17 14:54:09;;;;;;;6.55;3.10;;;;;;;;;;5046500;28;20033;-57
2021/11/17 14:56:35;;;;;;;6.75;2.95;;;;;;;;;;5053960;28;20036;-58
2021/11/17 14:59:01;;;;;;;7.03;3.28;;;;;;;;;;5053036;28;20033;-59
2021/11/17 15:01:31;;;;;;;5.88;3.33;;;;;;;;;;5052084;28;20029;-57
2021/11/17 15:03:57;;;;;;;4.07;2.60;;;;;;;;;;5050645;28;20021;-58
2021/11/17 15:06:24;;;;;;;4.82;2.75;;;;;;;;;;5044578;28;20040;-59
2021/11/17 15:08:50;;;;;;;8.45;3.40;;;;;;;;;;5048907;28;20025;-59
2021/11/17 15:11:16;;;;;;;7.60;3.08;;;;;;;;;;5047651;28;20025;-59
2021/11/17 15:13:43;;;;;;;6.88;2.83;;;;;;;;;;5046034;28;20025;-59
2021/11/17 15:16:10;;;;;;;6.03;2.95;;;;;;;;;;5049012;28;20037;-58
2021/11/17 15:18:37;;;;;;;5.65;3.20;;;;;;;;;;5050911;28;20032;-57
2021/11/17 15:21:04;;;;;;;5.45;3.17;;;;;;;;;;5052262;28;20029;-57
2021/11/17 15:23:32;;;;;;;5.07;2.85;;;;;;;;;;5046248;28;20400;-57
2021/11/17 15:25:58;;;;;;;5.80;3.22;;;;;;;;;;5043320;28;20025;-58
2021/11/17 15:28:26;;;;;;;4.38;3.30;;;;;;;;;;5043516;28;20039;-58
2021/11/17 15:31:03;;;;;;;6.45;2.60;;;;;;;;;;5037214;28;20045;-59
2021/11/17 15:33:29;;;;;;;6.57;3.15;;;;;;;;;;5049258;28;20161;-56
2021/11/17 15:35:55;;;;;;;4.72;2.92;;;;;;;;;;5051585;28;20029;-57
2021/11/17 15:38:22;;;;;;;6.43;3.03;;;;;;;;;;5053534;28;20409;-58
2021/11/17 15:40:49;;;;;;;5.72;3.05;;;;;;;;;;5050893;28;20052;-55
2021/11/17 15:43:16;;;;;;;7.28;2.97;;;;;;;;;;5050799;28;20081;-58
2021/11/17 15:45:42;;;;;;;6.97;3.22;;;;;;;;;;5053217;28;20080;-56
2021/11/17 15:48:08;;;;;;;5.38;3.28;;;;;;;;;;5043754;28;20125;-57
2021/11/17 15:50:36;;;;;;;6.25;2.75;;;;;;;;;;5048289;28;20552;-56
2021/11/17 15:53:03;;;;;;;7.78;4.22;;;;;;;;;;5047874;28;20025;-58
2021/11/17 15:55:29;;;;;;;6.90;3.60;;;;;;;;;;5050043;28;20159;-57
2021/11/17 15:57:55;;;;;;;4.45;2.63;;;;;;;;;;5046145;28;20148;-58
2021/11/17 16:00:23;;;;;;;6.00;3.03;;;;;;;;;;5043197;28;20035;-57
2021/11/17 16:02:49;;;;;;;6.22;3.20;;;;;;;;;;5047744;28;20017;-58
2021/11/17 16:05:16;;;;;;;7.07;3.20;;;;;;;;;;5049517;28;20017;-58
2021/11/17 16:07:42;;;;;;;6.38;2.90;;;;;;;;;;5048846;28;20027;-57
2021/11/17 16:10:09;;;;;;;7.45;3.58;;;;;;;;;;5050702;28;20025;-57
2021/11/17 16:12:36;;;;;;;6.03;2.70;;;;;;;;;;5047005;28;20380;-58
2021/11/17 16:15:03;;;;;;;4.65;3.08;;;;;;;;;;5049966;28;20036;-58
2021/11/17 16:17:29;;;;;;;8.65;2.97;;;;;;;;;;5046806;28;20367;-58
2021/11/17 16:19:55;;;;;;;5.63;3.15;;;;;;;;;;5041699;28;20035;-58
2021/11/17 16:22:33;;;;;;;6.28;2.95;;;;;;;;;;5044169;28;20021;-58
2021/11/17 16:27:46;;;;;;;5.88;3.08;;;;;;;;;;5046010;28;20064;-58
2021/11/17 16:30:13;;;;;;;7.28;2.63;;;;;;;;;;5049162;28;20071;-58
2021/11/17 16:32:40;;;;;;;5.80;2.85;;;;;;;;;;5044337;28;20049;-58
2021/11/17 16:35:06;;;;;;;5.20;2.55;;;;;;;;;;5045939;28;20029;-58
2021/11/17 16:37:32;;;;;;;5.70;3.03;;;;;;;;;;5043278;28;20528;-57
2021/11/17 16:39:58;;;;;;;6.47;3.03;;;;;;;;;;5045613;28;20029;-56
2021/11/17 16:42:24;;;;;;;5.95;3.25;;;;;;;;;;5042697;28;20071;-58
2021/11/17 16:44:52;;;;;;;4.63;2.88;;;;;;;;;;5046448;28;22151;-55
2021/11/17 16:47:18;;;;;;;8.63;5.38;;;;;;;;;;5048539;28;20029;-56
2021/11/17 16:49:45;;;;;;;7.68;3.28;;;;;;;;;;5043426;28;20108;-57
2021/11/17 16:52:25;;;;;;;5.20;3.10;;;;;;;;;;5051030;28;20028;-57
2021/11/17 16:54:53;;;;;;;6.22;2.92;;;;;;;;;;5050038;28;20103;-56
2021/11/17 16:57:19;;;;;;;5.43;3.25;;;;;;;;;;5048512;28;20028;-56
2021/11/17 16:59:45;;;;;;;6.88;3.15;;;;;;;;;;5041020;28;20018;-58
2021/11/17 17:02:12;;;;;;;6.93;3.78;;;;;;;;;;5046582;28;20029;-58
2021/11/17 17:04:39;;;;;;;7.10;3.50;;;;;;;;;;5050168;28;20025;-57
2021/11/17 17:07:06;;;;;;;6.40;3.47;;;;;;;;;;5051660;28;20462;-57
2021/11/17 17:09:32;;;;;;;7.97;3.90;;;;;;;;;;5047702;28;20039;-57
2021/11/17 17:11:58;;;;;;;10.10;3.97;;;;;;;;;;5039517;28;20038;-57
2021/11/17 17:14:24;;;;;;;7.57;4.03;;;;;;;;;;5048775;28;20075;-58
2021/11/17 17:16:50;;;;;;;8.82;3.95;;;;;;;;;;5048423;28;20108;-58
2021/11/17 17:19:17;;;;;;;10.07;4.20;;;;;;;;;;5048436;28;20013;-56
2021/11/17 17:21:44;;;;;;;9.35;4.18;;;;;;;;;;5047458;28;20048;-59
2021/11/17 17:24:11;;;;;;;9.15;4.25;;;;;;;;;;5044925;28;20068;-56
2021/11/17 17:26:38;;;;;;;12.60;4.03;;;;;;;;;;5047496;28;20025;-57
2021/11/17 17:29:05;;;;;;;6.65;3.88;;;;;;;;;;5044651;28;20119;-56